Hatsu Ethic — VQFS4 — position and weather

sailwx.info

Track history (hours):
 
Tides and Currents Weather Stations Pressure Air Temp Water Temp Dewpoint Dewpoint Depression Visibility Wind Speed Wind Dir Waves Ship Positions

Hatsu Ethic

Last reported at 2017-Apr-13 05:46 UTC. Time now 2017-Apr-28 12:01 UTC.
Position N 23°43' E 117°59'.
Warning: this ship's position is 15 days out of date.

Type: Cargo ship. MMSI: 235603000.

Date/timePositionNaut miles runAvg speedWind from/ knotsBaromVisibWave heightAir tempDewpointWater temp
2017-Apr-13 05:46N 23°43' E 117°59'411.9
2017-Apr-13 05:24N 23°47' E 118°02'811.7
2017-Apr-13 04:42N 23°53' E 118°07'311.3
2017-Apr-13 04:24N 23°56' E 118°09'511.4
2017-Apr-13 03:58N 24°00' E 118°12'612.1
2017-Apr-13 03:30N 24°06' E 118°14'713.2
2017-Apr-13 03:00N 24°12' E 118°16'612.1
2017-Apr-13 02:30N 24°17' E 118°13'612.7
2017-Apr-13 02:00N 24°22' E 118°08'611.2
2017-Apr-13 01:30N 24°26' E 118°04'3 5.8
2017-Apr-13 00:59N 24°27' E 118°00'0 0.0
2017-Apr-13 00:29N 24°27' E 118°00'0 0.0
2017-Apr-12 23:58N 24°27' E 118°00'0 0.0
2017-Apr-12 23:28N 24°27' E 118°00'0 0.0
2017-Apr-12 22:52N 24°27' E 118°00'0 0.0
2017-Apr-12 22:29N 24°27' E 118°00'0 0.0
2017-Apr-12 21:58N 24°27' E 118°00'0 0.0
2017-Apr-12 21:28N 24°27' E 118°00'0 0.0
2017-Apr-12 20:56N 24°27' E 118°00'0 0.0
2017-Apr-12 20:29N 24°27' E 118°00'0 0.0
2017-Apr-12 19:59N 24°27' E 118°00'0 0.0
2017-Apr-12 19:28N 24°27' E 118°00'0 0.0
2017-Apr-12 18:59N 24°27' E 118°00'0 0.0
2017-Apr-12 18:29N 24°27' E 118°00'0 0.0
2017-Apr-12 17:59N 24°27' E 118°00'0 0.0
2017-Apr-12 17:28N 24°27' E 118°00'0 0.0
2017-Apr-12 16:53N 24°27' E 118°00'0 0.0
2017-Apr-12 16:29N 24°27' E 118°00'0 0.0
2017-Apr-12 15:59N 24°27' E 118°00'0 0.0
2017-Apr-12 15:29N 24°27' E 118°00'0 0.0
2017-Apr-12 14:56N 24°27' E 118°00'0 0.0
2017-Apr-12 14:29N 24°27' E 118°00'0 0.0
2017-Apr-12 13:29N 24°27' E 118°00'0 0.0
2017-Apr-12 12:59N 24°27' E 118°00'0 0.3
2017-Apr-12 12:29N 24°27' E 118°00'2 4.4
2017-Apr-12 12:00N 24°26' E 118°03'4 7.8
2017-Apr-12 11:30N 24°24' E 118°06'4 8.1
2017-Apr-12 11:00N 24°21' E 118°09'611.6
2017-Apr-12 10:30N 24°17' E 118°14'510.3
2017-Apr-12 09:59N 24°17' E 118°20'4 1.1
2017-Apr-12 06:06N 24°18' E 118°24'0 1.3
2017-Apr-12 06:00N 24°18' E 118°24'0 0.0
2017-Apr-12 04:00N 24°18' E 118°24'0 0.0
2017-Apr-12 03:23N 24°18' E 118°24'0 0.0
2017-Apr-12 02:57N 24°18' E 118°24'0 0.0
2017-Apr-12 02:29N 24°18' E 118°24'0 0.0
2017-Apr-12 01:56N 24°18' E 118°24'0 0.0
2017-Apr-12 01:30N 24°18' E 118°24'0 0.0
2017-Apr-12 00:56N 24°18' E 118°24'0 0.0
2017-Apr-12 00:21N 24°18' E 118°24'0 0.1
2017-Apr-12 00:00N 24°18' E 118°24'0 0.1
2017-Apr-11 23:19N 24°18' E 118°24'0 0.0
2017-Apr-11 22:56N 24°18' E 118°24'0 0.1
2017-Apr-11 22:29N 24°18' E 118°24'0 0.1
2017-Apr-11 21:50N 24°18' E 118°24'0 0.0
2017-Apr-11 21:29N 24°18' E 118°24'0 0.2
2017-Apr-11 21:00N 24°18' E 118°24'0 0.0
2017-Apr-11 20:25N 24°18' E 118°24'0 0.2
2017-Apr-11 19:57N 24°18' E 118°24'0 0.0
2017-Apr-11 19:29N 24°18' E 118°24'0 0.0
2017-Apr-11 19:00N 24°18' E 118°24'0 0.1
2017-Apr-11 18:24N 24°18' E 118°24'0 0.0
2017-Apr-11 18:00N 24°18' E 118°24'0 0.0
2017-Apr-11 17:29N 24°18' E 118°24'0 0.1
2017-Apr-11 17:00N 24°18' E 118°24'0 0.0
2017-Apr-11 16:27N 24°18' E 118°24'0 0.0
2017-Apr-11 15:57N 24°18' E 118°24'0 0.5
2017-Apr-11 15:28N 24°18' E 118°25'3 6.8
2017-Apr-11 15:00N 24°19' E 118°28'814.9
2017-Apr-11 14:26N 24°20' E 118°37'  
2017-Apr-08 21:39N 31°55' E 126°58'  
Track history (hours):
 
Tides and Currents Weather Stations Pressure Air Temp Water Temp Dewpoint Dewpoint Depression Visibility Wind Speed Wind Dir Waves Ship Positions

Hatsu Ethic

Last reported at 2017-Apr-13 05:46 UTC. Time now 2017-Apr-28 12:01 UTC.
Position N 23°43' E 117°59'.
Warning: this ship's position is 15 days out of date.

Type: Cargo ship. MMSI: 235603000.

Date/timePositionNaut miles runAvg speedWind from/ knotsBaromVisibWave heightAir tempDewpointWater temp
2017-Apr-13 05:46N 23°43' E 117°59'411.9
2017-Apr-13 05:24N 23°47' E 118°02'811.7
2017-Apr-13 04:42N 23°53' E 118°07'311.3
2017-Apr-13 04:24N 23°56' E 118°09'511.4
2017-Apr-13 03:58N 24°00' E 118°12'612.1
2017-Apr-13 03:30N 24°06' E 118°14'713.2
2017-Apr-13 03:00N 24°12' E 118°16'612.1
2017-Apr-13 02:30N 24°17' E 118°13'612.7
2017-Apr-13 02:00N 24°22' E 118°08'611.2
2017-Apr-13 01:30N 24°26' E 118°04'3 5.8
2017-Apr-13 00:59N 24°27' E 118°00'0 0.0
2017-Apr-13 00:29N 24°27' E 118°00'0 0.0
2017-Apr-12 23:58N 24°27' E 118°00'0 0.0
2017-Apr-12 23:28N 24°27' E 118°00'0 0.0
2017-Apr-12 22:52N 24°27' E 118°00'0 0.0
2017-Apr-12 22:29N 24°27' E 118°00'0 0.0
2017-Apr-12 21:58N 24°27' E 118°00'0 0.0
2017-Apr-12 21:28N 24°27' E 118°00'0 0.0
2017-Apr-12 20:56N 24°27' E 118°00'0 0.0
2017-Apr-12 20:29N 24°27' E 118°00'0 0.0
2017-Apr-12 19:59N 24°27' E 118°00'0 0.0
2017-Apr-12 19:28N 24°27' E 118°00'0 0.0
2017-Apr-12 18:59N 24°27' E 118°00'0 0.0
2017-Apr-12 18:29N 24°27' E 118°00'0 0.0
2017-Apr-12 17:59N 24°27' E 118°00'0 0.0
2017-Apr-12 17:28N 24°27' E 118°00'0 0.0
2017-Apr-12 16:53N 24°27' E 118°00'0 0.0
2017-Apr-12 16:29N 24°27' E 118°00'0 0.0
2017-Apr-12 15:59N 24°27' E 118°00'0 0.0
2017-Apr-12 15:29N 24°27' E 118°00'0 0.0
2017-Apr-12 14:56N 24°27' E 118°00'0 0.0
2017-Apr-12 14:29N 24°27' E 118°00'0 0.0
2017-Apr-12 13:29N 24°27' E 118°00'0 0.0
2017-Apr-12 12:59N 24°27' E 118°00'0 0.3
2017-Apr-12 12:29N 24°27' E 118°00'2 4.4
2017-Apr-12 12:00N 24°26' E 118°03'4 7.8
2017-Apr-12 11:30N 24°24' E 118°06'4 8.1
2017-Apr-12 11:00N 24°21' E 118°09'611.6
2017-Apr-12 10:30N 24°17' E 118°14'510.3
2017-Apr-12 09:59N 24°17' E 118°20'4 1.1
2017-Apr-12 06:06N 24°18' E 118°24'0 1.3
2017-Apr-12 06:00N 24°18' E 118°24'0 0.0
2017-Apr-12 04:00N 24°18' E 118°24'0 0.0
2017-Apr-12 03:23N 24°18' E 118°24'0 0.0
2017-Apr-12 02:57N 24°18' E 118°24'0 0.0
2017-Apr-12 02:29N 24°18' E 118°24'0 0.0
2017-Apr-12 01:56N 24°18' E 118°24'0 0.0
2017-Apr-12 01:30N 24°18' E 118°24'0 0.0
2017-Apr-12 00:56N 24°18' E 118°24'0 0.0
2017-Apr-12 00:21N 24°18' E 118°24'0 0.1
2017-Apr-12 00:00N 24°18' E 118°24'0 0.1
2017-Apr-11 23:19N 24°18' E 118°24'0 0.0
2017-Apr-11 22:56N 24°18' E 118°24'0 0.1
2017-Apr-11 22:29N 24°18' E 118°24'0 0.1
2017-Apr-11 21:50N 24°18' E 118°24'0 0.0
2017-Apr-11 21:29N 24°18' E 118°24'0 0.2
2017-Apr-11 21:00N 24°18' E 118°24'0 0.0
2017-Apr-11 20:25N 24°18' E 118°24'0 0.2
2017-Apr-11 19:57N 24°18' E 118°24'0 0.0
2017-Apr-11 19:29N 24°18' E 118°24'0 0.0
2017-Apr-11 19:00N 24°18' E 118°24'0 0.1
2017-Apr-11 18:24N 24°18' E 118°24'0 0.0
2017-Apr-11 18:00N 24°18' E 118°24'0 0.0
2017-Apr-11 17:29N 24°18' E 118°24'0 0.1
2017-Apr-11 17:00N 24°18' E 118°24'0 0.0
2017-Apr-11 16:27N 24°18' E 118°24'0 0.0
2017-Apr-11 15:57N 24°18' E 118°24'0 0.5
2017-Apr-11 15:28N 24°18' E 118°25'3 6.8
2017-Apr-11 15:00N 24°19' E 118°28'814.9
2017-Apr-11 14:26N 24°20' E 118°37'  
2017-Apr-08 21:39N 31°55' E 126°58'  

Dump ship's entire track history